Time;durP1;ratioP1;P1;durP2;ratioP2;P2;SDS_P1;SDS_P2;PMS_P1;PMS_P2;Temp;Humidity;BMP_temperature;BMP_pressure;BME280_temperature;BME280_humidity;BME280_pressure;Samples;Min_cycle;Max_cycle;Signal;HPM_P1;HPM_P2
2023/01/03 00:00:33;;;;;;;8.50;6.03;;;;;;;;;;5034664;28;20591;-53
2023/01/03 00:02:59;;;;;;;9.90;6.63;;;;;;;;;;5034776;28;20224;-53
2023/01/03 00:05:25;;;;;;;9.63;6.43;;;;;;;;;;5034788;28;20201;-54
2023/01/03 00:07:51;;;;;;;7.43;6.50;;;;;;;;;;5034693;28;20216;-54
2023/01/03 00:10:17;;;;;;;8.70;6.57;;;;;;;;;;5034324;28;20538;-54
2023/01/03 00:12:45;;;;;;;9.27;6.30;;;;;;;;;;5034562;28;20208;-53
2023/01/03 00:15:14;;;;;;;10.00;7.00;;;;;;;;;;5034371;28;20555;-53
2023/01/03 00:17:40;;;;;;;8.53;6.40;;;;;;;;;;5034526;28;20635;-53
2023/01/03 00:20:07;;;;;;;7.70;6.50;;;;;;;;;;5034463;28;20424;-53
2023/01/03 00:22:33;;;;;;;11.30;6.33;;;;;;;;;;5034376;28;20224;-54
2023/01/03 00:24:59;;;;;;;12.00;7.23;;;;;;;;;;5034118;28;20431;-52
2023/01/03 00:27:26;;;;;;;7.03;6.37;;;;;;;;;;5034539;28;20442;-52
2023/01/03 00:29:53;;;;;;;6.93;6.33;;;;;;;;;;5034198;28;20220;-50
2023/01/03 00:32:19;;;;;;;8.90;6.17;;;;;;;;;;5034352;28;20447;-59
2023/01/03 00:34:46;;;;;;;11.23;6.27;;;;;;;;;;5034135;28;20472;-58
2023/01/03 00:37:12;;;;;;;8.60;6.27;;;;;;;;;;5033536;28;20292;-59
2023/01/03 00:39:38;;;;;;;9.10;6.07;;;;;;;;;;5033236;28;20459;-58
2023/01/03 00:42:04;;;;;;;10.97;6.20;;;;;;;;;;5033744;28;20209;-58
2023/01/03 00:44:30;;;;;;;8.07;5.73;;;;;;;;;;5033957;28;20292;-58
2023/01/03 00:46:58;;;;;;;8.83;5.77;;;;;;;;;;5033555;28;20436;-58
2023/01/03 00:49:24;;;;;;;7.13;5.73;;;;;;;;;;5033680;28;20497;-58
2023/01/03 00:51:52;;;;;;;8.00;5.73;;;;;;;;;;5033889;28;20598;-59
2023/01/03 00:54:18;;;;;;;8.50;6.00;;;;;;;;;;5033983;28;20254;-59
2023/01/03 00:56:45;;;;;;;8.23;6.20;;;;;;;;;;5033731;28;20431;-59
2023/01/03 00:59:11;;;;;;;8.97;5.30;;;;;;;;;;5033467;28;20444;-59
2023/01/03 01:01:39;;;;;;;8.70;6.80;;;;;;;;;;5033818;28;20440;-58
2023/01/03 01:04:07;;;;;;;9.53;6.57;;;;;;;;;;5033338;28;20835;-59
2023/01/03 01:06:34;;;;;;;10.67;6.07;;;;;;;;;;5033841;28;20432;-59
2023/01/03 01:09:01;;;;;;;10.17;6.70;;;;;;;;;;5033591;28;20443;-59
2023/01/03 01:11:28;;;;;;;6.87;6.03;;;;;;;;;;5033282;28;20432;-58
2023/01/03 01:13:54;;;;;;;8.27;6.07;;;;;;;;;;5030165;28;20940;-58
2023/01/03 01:16:21;;;;;;;7.60;5.70;;;;;;;;;;5033472;28;20914;-58
2023/01/03 01:18:48;;;;;;;12.90;6.23;;;;;;;;;;5033331;28;20992;-58
2023/01/03 01:21:16;;;;;;;10.27;6.53;;;;;;;;;;5033381;28;20432;-58
2023/01/03 01:23:43;;;;;;;6.73;5.27;;;;;;;;;;5033276;28;20213;-63
2023/01/03 01:26:11;;;;;;;8.93;6.57;;;;;;;;;;5033242;28;20440;-59
2023/01/03 01:28:37;;;;;;;12.87;6.73;;;;;;;;;;5033452;28;20440;-59
2023/01/03 01:31:04;;;;;;;10.70;6.30;;;;;;;;;;5022866;28;20441;-61
2023/01/03 01:33:31;;;;;;;9.27;6.57;;;;;;;;;;5013208;28;20445;-57
2023/01/03 01:35:57;;;;;;;13.53;6.50;;;;;;;;;;5013170;28;20468;-61
2023/01/03 01:38:24;;;;;;;9.57;6.13;;;;;;;;;;5013258;28;20436;-60
2023/01/03 01:40:50;;;;;;;7.93;6.23;;;;;;;;;;5013099;28;20526;-61
2023/01/03 01:46:05;;;;;;;7.23;6.00;;;;;;;;;;5000013;28;20200;-60
2023/01/03 01:48:32;;;;;;;9.57;6.67;;;;;;;;;;4993481;28;20445;-60
2023/01/03 01:50:58;;;;;;;10.83;6.17;;;;;;;;;;4993094;28;20437;-60
2023/01/03 01:53:27;;;;;;;9.17;6.40;;;;;;;;;;4993471;28;20493;-60
2023/01/03 01:55:56;;;;;;;8.77;5.87;;;;;;;;;;4993161;28;20197;-60
2023/01/03 01:58:25;;;;;;;8.77;6.13;;;;;;;;;;4993628;28;20489;-60
2023/01/03 02:00:51;;;;;;;8.17;6.93;;;;;;;;;;4993097;28;20449;-60
2023/01/03 02:03:17;;;;;;;13.50;7.47;;;;;;;;;;4993116;28;20466;-61
2023/01/03 02:05:48;;;;;;;8.73;7.00;;;;;;;;;;4993158;28;20444;-60
2023/01/03 02:08:15;;;;;;;10.80;7.07;;;;;;;;;;4992990;28;20198;-61
2023/01/03 02:10:51;;;;;;;13.73;7.60;;;;;;;;;;4992891;28;20732;-59
2023/01/03 02:13:21;;;;;;;11.83;7.67;;;;;;;;;;4992977;28;20437;-59
2023/01/03 02:15:52;;;;;;;9.30;7.63;;;;;;;;;;4992814;28;20452;-59
2023/01/03 02:18:26;;;;;;;10.13;8.00;;;;;;;;;;4992762;28;20442;-59
2023/01/03 02:21:00;;;;;;;9.73;7.37;;;;;;;;;;4992674;28;20475;-60
2023/01/03 02:23:43;;;;;;;13.47;8.10;;;;;;;;;;4992662;28;20884;-60
2023/01/03 02:26:20;;;;;;;12.63;8.47;;;;;;;;;;4992737;28;20865;-60
2023/01/03 02:29:11;;;;;;;13.80;8.53;;;;;;;;;;4992643;28;20862;-60
2023/01/03 02:31:42;;;;;;;14.03;8.43;;;;;;;;;;4992567;28;20452;-60
2023/01/03 02:34:13;;;;;;;11.57;8.03;;;;;;;;;;4992494;28;20469;-60
2023/01/03 02:36:45;;;;;;;10.90;8.60;;;;;;;;;;4992730;28;20453;-60
2023/01/03 02:39:14;;;;;;;10.47;9.37;;;;;;;;;;4992495;28;20534;-60
2023/01/03 02:41:43;;;;;;;15.73;9.73;;;;;;;;;;4992356;28;20493;-60
2023/01/03 02:44:13;;;;;;;12.10;9.17;;;;;;;;;;4992266;28;20521;-60
2023/01/03 02:46:43;;;;;;;11.20;8.57;;;;;;;;;;4992442;28;20441;-60
2023/01/03 02:49:11;;;;;;;12.50;9.03;;;;;;;;;;4992357;28;20460;-60
2023/01/03 02:51:38;;;;;;;10.53;8.77;;;;;;;;;;4992803;28;20477;-60
2023/01/03 02:54:07;;;;;;;14.30;9.27;;;;;;;;;;4992341;28;20500;-60
2023/01/03 02:56:35;;;;;;;13.27;8.67;;;;;;;;;;4992161;28;20441;-60
2023/01/03 02:59:05;;;;;;;12.30;8.90;;;;;;;;;;4992182;28;20507;-60
2023/01/03 03:01:32;;;;;;;12.70;9.33;;;;;;;;;;4991701;28;20834;-60
2023/01/03 03:04:00;;;;;;;11.97;9.33;;;;;;;;;;4991967;28;20485;-60
2023/01/03 03:06:30;;;;;;;16.43;9.93;;;;;;;;;;4992282;28;20458;-60
2023/01/03 03:08:56;;;;;;;15.17;10.27;;;;;;;;;;4992101;28;20452;-60
2023/01/03 03:14:12;;;;;;;18.20;10.03;;;;;;;;;;4992191;28;20277;-60
2023/01/03 03:16:46;;;;;;;16.87;10.70;;;;;;;;;;4992114;28;20496;-59
2023/01/03 03:24:48;;;;;;;15.50;10.03;;;;;;;;;;4992152;28;20440;-59
2023/01/03 03:24:49;;;;;;;14.07;9.87;;;;;;;;;;4992020;28;20623;-59
2023/01/03 03:30:03;;;;;;;16.13;10.07;;;;;;;;;;4991838;28;20193;-60
2023/01/03 03:32:31;;;;;;;12.97;10.43;;;;;;;;;;4991843;28;20775;-60
2023/01/03 03:35:02;;;;;;;15.93;10.70;;;;;;;;;;4991864;28;20460;-60
2023/01/03 03:37:29;;;;;;;15.70;10.63;;;;;;;;;;4992044;28;20457;-59
2023/01/03 03:45:29;;;;;;;16.07;9.37;;;;;;;;;;4991910;28;20926;-60
2023/01/03 03:47:58;;;;;;;13.57;10.07;;;;;;;;;;4991679;28;20429;-59
2023/01/03 03:50:28;;;;;;;15.30;10.30;;;;;;;;;;4991736;28;20750;-59
2023/01/03 03:52:57;;;;;;;17.60;10.90;;;;;;;;;;4991758;28;20438;-59
2023/01/03 03:55:24;;;;;;;15.87;10.40;;;;;;;;;;4991669;28;20485;-59
2023/01/03 03:57:52;;;;;;;13.50;11.23;;;;;;;;;;4991640;28;20444;-60
2023/01/03 04:00:20;;;;;;;14.20;10.90;;;;;;;;;;4991472;28;20492;-60
2023/01/03 04:02:47;;;;;;;14.23;11.23;;;;;;;;;;4991718;28;20437;-60
2023/01/03 04:05:14;;;;;;;15.10;11.47;;;;;;;;;;4991431;28;20429;-59
2023/01/03 04:07:41;;;;;;;15.53;11.07;;;;;;;;;;4991555;28;20449;-60
2023/01/03 04:10:08;;;;;;;15.53;11.80;;;;;;;;;;4991595;28;20441;-60
2023/01/03 04:12:34;;;;;;;14.67;11.03;;;;;;;;;;4992695;28;20429;-61
2023/01/03 04:15:02;;;;;;;14.33;10.60;;;;;;;;;;4995092;28;20440;-59
2023/01/03 04:17:28;;;;;;;14.97;9.83;;;;;;;;;;4995309;28;20209;-60
2023/01/03 04:19:54;;;;;;;15.20;10.80;;;;;;;;;;4995044;28;20524;-60
2023/01/03 04:22:20;;;;;;;15.03;10.13;;;;;;;;;;4995067;28;20228;-59
2023/01/03 04:24:47;;;;;;;15.13;10.27;;;;;;;;;;4994774;28;20226;-61
2023/01/03 04:27:13;;;;;;;16.03;9.87;;;;;;;;;;4994823;28;20788;-60
2023/01/03 04:29:39;;;;;;;14.73;9.67;;;;;;;;;;4994861;28;20551;-62
2023/01/03 04:32:06;;;;;;;12.93;10.50;;;;;;;;;;4994752;28;20273;-60
2023/01/03 04:34:32;;;;;;;16.37;10.40;;;;;;;;;;4994883;28;20625;-60
2023/01/03 04:36:58;;;;;;;14.73;10.10;;;;;;;;;;4994763;28;20933;-60
2023/01/03 04:39:24;;;;;;;14.93;10.73;;;;;;;;;;4994539;28;20225;-60
2023/01/03 04:41:51;;;;;;;13.70;10.37;;;;;;;;;;4994663;28;20603;-60
2023/01/03 04:44:17;;;;;;;14.23;9.83;;;;;;;;;;4994678;28;20473;-61
2023/01/03 04:46:43;;;;;;;15.70;10.00;;;;;;;;;;4994853;28;20448;-60
2023/01/03 04:49:09;;;;;;;13.00;9.60;;;;;;;;;;4994562;28;20202;-59
2023/01/03 04:51:36;;;;;;;14.10;9.70;;;;;;;;;;4994375;28;20445;-60
2023/01/03 04:54:02;;;;;;;10.50;9.13;;;;;;;;;;4994605;28;20529;-60
2023/01/03 04:56:29;;;;;;;15.47;9.97;;;;;;;;;;4994421;28;20429;-60
2023/01/03 04:58:57;;;;;;;13.50;9.93;;;;;;;;;;4994419;28;20444;-59
2023/01/03 05:01:23;;;;;;;13.97;9.83;;;;;;;;;;4994492;28;20441;-60
2023/01/03 05:03:49;;;;;;;16.30;10.93;;;;;;;;;;4994202;28;20531;-60
2023/01/03 05:06:15;;;;;;;14.50;9.90;;;;;;;;;;4994485;28;20495;-60
2023/01/03 05:08:44;;;;;;;15.00;9.77;;;;;;;;;;4994222;28;20465;-60
2023/01/03 05:11:10;;;;;;;17.23;11.23;;;;;;;;;;4993965;28;20839;-60
2023/01/03 05:13:36;;;;;;;15.87;10.73;;;;;;;;;;4994417;28;20452;-60
2023/01/03 05:16:07;;;;;;;17.27;10.13;;;;;;;;;;4993855;28;20924;-60
2023/01/03 05:18:34;;;;;;;12.93;10.90;;;;;;;;;;4994038;28;20481;-60
2023/01/03 05:26:33;;;;;;;15.10;11.13;;;;;;;;;;4994026;28;20940;-60
2023/01/03 05:28:59;;;;;;;14.60;11.43;;;;;;;;;;4993657;28;20441;-60
2023/01/03 05:31:27;;;;;;;15.17;11.37;;;;;;;;;;4993963;28;20524;-60
2023/01/03 05:33:53;;;;;;;18.07;12.33;;;;;;;;;;4993599;28;20445;-60
2023/01/03 05:36:19;;;;;;;14.37;12.00;;;;;;;;;;4993620;28;20437;-60
2023/01/03 05:38:45;;;;;;;15.80;11.27;;;;;;;;;;4993784;28;21007;-60
2023/01/03 05:41:12;;;;;;;14.23;11.30;;;;;;;;;;4993258;28;20260;-60
2023/01/03 05:43:38;;;;;;;15.07;10.97;;;;;;;;;;4993652;28;20481;-59
2023/01/03 05:46:04;;;;;;;16.13;11.50;;;;;;;;;;4993397;28;20862;-59
2023/01/03 05:48:31;;;;;;;16.70;12.90;;;;;;;;;;4993400;28;20214;-60
2023/01/03 05:50:57;;;;;;;16.17;12.13;;;;;;;;;;4993377;28;20453;-60
2023/01/03 05:53:23;;;;;;;14.27;12.50;;;;;;;;;;4993350;28;20511;-60
2023/01/03 05:55:49;;;;;;;17.93;12.70;;;;;;;;;;4993402;28;20524;-59
2023/01/03 05:58:15;;;;;;;19.10;14.03;;;;;;;;;;4993293;28;20509;-59
2023/01/03 06:00:41;;;;;;;20.60;13.57;;;;;;;;;;4993255;28;20695;-60
2023/01/03 06:03:07;;;;;;;17.43;13.03;;;;;;;;;;4993019;28;20222;-60
2023/01/03 06:05:35;;;;;;;18.03;13.70;;;;;;;;;;4993219;28;20511;-60
2023/01/03 06:08:01;;;;;;;22.97;16.93;;;;;;;;;;4993098;28;20591;-60
2023/01/03 06:10:27;;;;;;;17.33;14.00;;;;;;;;;;4993107;28;20785;-60
2023/01/03 06:12:53;;;;;;;17.30;14.17;;;;;;;;;;4992932;28;20436;-60
2023/01/03 06:15:19;;;;;;;18.53;14.93;;;;;;;;;;4992840;28;20449;-60
2023/01/03 06:17:56;;;;;;;19.97;15.37;;;;;;;;;;4992975;28;20202;-60
2023/01/03 06:20:22;;;;;;;21.03;15.43;;;;;;;;;;4992635;28;20286;-60
2023/01/03 06:22:49;;;;;;;19.17;15.67;;;;;;;;;;4992652;28;20528;-61
2023/01/03 06:25:15;;;;;;;22.33;16.30;;;;;;;;;;4992722;28;20445;-60
2023/01/03 06:27:41;;;;;;;22.80;17.10;;;;;;;;;;4992600;28;20452;-60
2023/01/03 06:30:08;;;;;;;26.90;18.67;;;;;;;;;;4992675;28;20269;-60
2023/01/03 06:32:34;;;;;;;25.27;19.93;;;;;;;;;;4992569;28;20441;-60
2023/01/03 06:35:00;;;;;;;26.10;20.77;;;;;;;;;;4992204;28;20457;-60
2023/01/03 06:37:26;;;;;;;25.60;18.67;;;;;;;;;;4991739;28;20210;-60
2023/01/03 06:39:54;;;;;;;22.73;17.83;;;;;;;;;;4992174;28;20290;-60
2023/01/03 06:42:38;;;;;;;25.90;19.87;;;;;;;;;;4992560;28;20461;-60
2023/01/03 06:53:20;;;;;;;21.17;16.30;;;;;;;;;;4992258;28;20429;-60
2023/01/03 06:55:47;;;;;;;22.77;16.50;;;;;;;;;;4992103;28;20438;-59
2023/01/03 06:58:13;;;;;;;22.70;16.67;;;;;;;;;;4992003;28;20936;-60
2023/01/03 07:00:40;;;;;;;19.63;16.47;;;;;;;;;;4992582;28;20879;-61
2023/01/03 07:03:07;;;;;;;21.17;15.43;;;;;;;;;;4991894;28;20580;-61
2023/01/03 07:05:33;;;;;;;18.67;15.57;;;;;;;;;;4992282;28;20451;-61
2023/01/03 07:07:59;;;;;;;20.23;16.33;;;;;;;;;;4992116;28;20437;-61
2023/01/03 07:10:25;;;;;;;22.50;17.17;;;;;;;;;;4991905;28;20731;-60
2023/01/03 07:15:37;;;;;;;22.43;16.07;;;;;;;;;;4992176;28;20428;-61
2023/01/03 07:18:03;;;;;;;17.97;14.93;;;;;;;;;;4991917;28;20437;-61
2023/01/03 07:20:29;;;;;;;20.20;15.73;;;;;;;;;;4992192;28;20236;-61
2023/01/03 07:22:55;;;;;;;20.33;15.90;;;;;;;;;;4991812;28;20465;-62
2023/01/03 07:25:21;;;;;;;17.97;14.80;;;;;;;;;;4991936;28;20202;-61
2023/01/03 07:27:58;;;;;;;19.13;14.50;;;;;;;;;;4992036;28;20257;-61
2023/01/03 07:30:24;;;;;;;20.30;16.07;;;;;;;;;;4991928;28;20673;-61
2023/01/03 07:32:49;;;;;;;23.80;15.97;;;;;;;;;;4991717;28;20448;-61
2023/01/03 07:35:16;;;;;;;21.67;15.60;;;;;;;;;;4991936;28;20230;-61
2023/01/03 07:37:42;;;;;;;22.00;16.70;;;;;;;;;;4991710;28;20645;-62
2023/01/03 07:40:08;;;;;;;21.93;16.63;;;;;;;;;;4991585;28;20477;-61
2023/01/03 07:45:20;;;;;;;25.23;18.03;;;;;;;;;;4991929;28;20971;-61
2023/01/03 07:47:46;;;;;;;23.83;16.80;;;;;;;;;;5001693;28;20448;-62
2023/01/03 07:50:12;;;;;;;24.87;18.10;;;;;;;;;;5015173;28;20500;-61
2023/01/03 07:52:38;;;;;;;20.87;17.03;;;;;;;;;;5015126;28;20448;-61
2023/01/03 07:55:05;;;;;;;23.77;18.27;;;;;;;;;;5014952;28;20201;-61
2023/01/03 07:57:31;;;;;;;20.17;16.67;;;;;;;;;;5015097;28;20206;-61
2023/01/03 07:59:57;;;;;;;19.83;16.13;;;;;;;;;;5015035;28;20966;-61
2023/01/03 08:02:24;;;;;;;20.93;16.73;;;;;;;;;;5014867;28;20252;-61
2023/01/03 08:04:50;;;;;;;23.87;17.87;;;;;;;;;;5014898;28;20235;-61
2023/01/03 08:07:16;;;;;;;23.73;17.00;;;;;;;;;;5014993;28;20802;-61
2023/01/03 08:15:11;;;;;;;18.97;15.17;;;;;;;;;;5014721;28;20527;-63
2023/01/03 08:17:38;;;;;;;17.07;13.17;;;;;;;;;;5014671;28;20986;-62
2023/01/03 08:20:05;;;;;;;16.50;14.13;;;;;;;;;;5014671;28;20288;-61
2023/01/03 08:22:32;;;;;;;17.33;14.17;;;;;;;;;;5014730;28;20436;-61
2023/01/03 08:24:58;;;;;;;17.63;14.70;;;;;;;;;;5014396;28;20564;-62
2023/01/03 08:27:24;;;;;;;19.30;15.13;;;;;;;;;;5014477;28;20892;-62
2023/01/03 08:29:50;;;;;;;18.77;15.13;;;;;;;;;;5008067;28;20281;-61
2023/01/03 08:32:16;;;;;;;18.53;15.13;;;;;;;;;;4994687;28;20606;-61
2023/01/03 08:34:47;;;;;;;17.07;13.80;;;;;;;;;;4994832;28;20222;-61
2023/01/03 08:37:13;;;;;;;16.27;14.33;;;;;;;;;;4994710;28;20434;-62
2023/01/03 08:39:42;;;;;;;18.40;16.00;;;;;;;;;;4994621;28;20515;-60
2023/01/03 08:42:09;;;;;;;21.70;15.83;;;;;;;;;;4994805;28;20441;-62
2023/01/03 08:44:35;;;;;;;18.93;14.43;;;;;;;;;;4994666;28;20910;-69
2023/01/03 08:47:02;;;;;;;18.60;14.57;;;;;;;;;;4994456;28;20951;-64
2023/01/03 08:49:29;;;;;;;18.33;15.67;;;;;;;;;;4994692;28;20438;-65
2023/01/03 08:51:56;;;;;;;18.13;13.83;;;;;;;;;;4994407;28;20425;-64
2023/01/03 08:54:22;;;;;;;22.00;16.50;;;;;;;;;;4994373;28;20460;-64
2023/01/03 08:56:48;;;;;;;19.30;15.70;;;;;;;;;;4994595;28;20449;-64
2023/01/03 08:59:14;;;;;;;20.70;16.50;;;;;;;;;;4993265;28;20236;-64
2023/01/03 09:01:40;;;;;;;19.03;15.40;;;;;;;;;;4994654;28;20206;-65
2023/01/03 09:04:06;;;;;;;16.83;13.97;;;;;;;;;;4994164;28;20523;-65
2023/01/03 09:06:33;;;;;;;14.70;12.67;;;;;;;;;;4994459;28;20253;-65
2023/01/03 09:09:02;;;;;;;13.47;11.90;;;;;;;;;;4994332;28;20199;-66
2023/01/03 09:11:28;;;;;;;12.50;11.20;;;;;;;;;;4996540;28;20607;-65
2023/01/03 09:13:54;;;;;;;15.53;11.20;;;;;;;;;;5004653;28;20252;-64
2023/01/03 09:16:20;;;;;;;12.40;10.93;;;;;;;;;;5013539;28;20202;-65
2023/01/03 09:18:46;;;;;;;12.40;10.47;;;;;;;;;;5013535;28;20248;-66
2023/01/03 09:21:12;;;;;;;12.33;10.90;;;;;;;;;;5013506;28;20617;-67
2023/01/03 09:23:38;;;;;;;13.27;10.23;;;;;;;;;;5013499;28;20308;-67
2023/01/03 09:26:06;;;;;;;11.67;10.53;;;;;;;;;;5013376;28;20201;-67
2023/01/03 09:28:32;;;;;;;12.93;10.97;;;;;;;;;;5013428;28;20702;-66
2023/01/03 09:30:58;;;;;;;11.57;10.37;;;;;;;;;;5013193;28;20193;-66
2023/01/03 09:33:25;;;;;;;11.17;10.07;;;;;;;;;;5013302;28;20190;-65
2023/01/03 09:35:51;;;;;;;12.93;10.83;;;;;;;;;;5013192;28;20260;-66
2023/01/03 09:38:17;;;;;;;11.83;10.63;;;;;;;;;;5013183;28;20201;-66
2023/01/03 09:40:44;;;;;;;12.60;11.30;;;;;;;;;;5013314;28;20291;-65
2023/01/03 09:43:14;;;;;;;11.70;10.60;;;;;;;;;;5012903;28;20205;-59
2023/01/03 09:45:42;;;;;;;12.03;10.83;;;;;;;;;;5012994;28;20568;-60
2023/01/03 09:48:10;;;;;;;11.03;9.70;;;;;;;;;;5012973;28;20276;-62
2023/01/03 09:50:37;;;;;;;13.20;10.70;;;;;;;;;;5012950;28;20198;-61
2023/01/03 10:04:28;;;;;;;11.33;10.07;;;;;;;;;;5009757;28;20241;-64
2023/01/03 10:06:59;;;;;;;10.97;9.87;;;;;;;;;;5012811;28;20206;-63
2023/01/03 10:09:30;;;;;;;10.63;9.60;;;;;;;;;;5012731;28;20229;-64
2023/01/03 10:12:01;;;;;;;12.37;9.47;;;;;;;;;;5012682;28;20236;-64
2023/01/03 10:14:35;;;;;;;11.13;10.03;;;;;;;;;;5012443;28;20186;-64
2023/01/03 10:17:09;;;;;;;12.43;10.40;;;;;;;;;;5010629;28;20204;-63
2023/01/03 10:19:50;;;;;;;11.93;10.17;;;;;;;;;;5012426;28;20197;-63
2023/01/03 10:22:18;;;;;;;11.83;10.63;;;;;;;;;;5011727;28;20204;-63
2023/01/03 10:24:45;;;;;;;12.10;10.90;;;;;;;;;;5012094;28;20648;-64
2023/01/03 10:27:14;;;;;;;11.67;10.57;;;;;;;;;;5012066;28;20194;-63
2023/01/03 10:29:41;;;;;;;12.47;11.20;;;;;;;;;;5012144;28;20229;-63
2023/01/03 10:32:15;;;;;;;16.37;12.73;;;;;;;;;;5012073;28;20301;-63
2023/01/03 10:34:41;;;;;;;13.10;11.70;;;;;;;;;;5011829;28;20271;-64
2023/01/03 10:37:15;;;;;;;13.00;11.80;;;;;;;;;;5012250;28;20198;-62
2023/01/03 10:39:41;;;;;;;13.13;11.83;;;;;;;;;;5011918;28;20632;-64
2023/01/03 10:42:07;;;;;;;14.10;12.03;;;;;;;;;;5011706;28;20719;-64
2023/01/03 10:44:33;;;;;;;12.70;11.50;;;;;;;;;;5011743;28;20231;-63
2023/01/03 10:47:09;;;;;;;14.03;12.57;;;;;;;;;;5011373;28;20201;-64
2023/01/03 10:49:35;;;;;;;14.40;12.07;;;;;;;;;;5011721;28;20663;-64
2023/01/03 10:52:03;;;;;;;13.63;11.80;;;;;;;;;;5011798;28;20205;-64
2023/01/03 10:54:31;;;;;;;13.50;11.97;;;;;;;;;;5011706;28;20201;-63
2023/01/03 10:56:57;;;;;;;14.40;12.33;;;;;;;;;;5011834;28;20189;-63
2023/01/03 10:59:24;;;;;;;13.97;12.57;;;;;;;;;;5011412;28;20236;-63
2023/01/03 11:01:55;;;;;;;14.77;13.17;;;;;;;;;;5011766;28;20218;-63
2023/01/03 11:04:23;;;;;;;15.43;12.80;;;;;;;;;;5011393;28;20238;-63
2023/01/03 11:06:58;;;;;;;14.80;13.30;;;;;;;;;;5011459;28;20198;-63
2023/01/03 11:09:26;;;;;;;16.20;14.50;;;;;;;;;;5011313;28;20275;-64
2023/01/03 11:11:53;;;;;;;14.60;13.07;;;;;;;;;;5011448;28;20206;-66
2023/01/03 11:14:22;;;;;;;15.03;13.50;;;;;;;;;;5011393;28;20200;-64
2023/01/03 11:16:55;;;;;;;15.20;13.67;;;;;;;;;;5011681;28;20251;-64
2023/01/03 11:19:25;;;;;;;16.43;14.07;;;;;;;;;;5011476;28;20235;-65
2023/01/03 11:21:53;;;;;;;14.90;13.23;;;;;;;;;;5012679;28;20233;-64
2023/01/03 11:24:24;;;;;;;16.43;13.57;;;;;;;;;;5017777;28;20323;-63
2023/01/03 11:26:55;;;;;;;15.90;12.83;;;;;;;;;;5017855;28;20703;-64
2023/01/03 11:29:33;;;;;;;15.33;13.73;;;;;;;;;;5017906;28;20201;-64
2023/01/03 11:32:05;;;;;;;15.67;14.07;;;;;;;;;;5017790;28;20208;-64
2023/01/03 11:34:39;;;;;;;15.53;13.07;;;;;;;;;;5006244;28;20872;-63
2023/01/03 11:37:08;;;;;;;15.80;14.17;;;;;;;;;;4998664;28;20287;-63
2023/01/03 11:39:44;;;;;;;17.80;14.37;;;;;;;;;;4998189;28;20202;-61
2023/01/03 11:42:19;;;;;;;15.93;14.33;;;;;;;;;;4998331;28;20697;-62
2023/01/03 11:44:53;;;;;;;14.90;12.97;;;;;;;;;;4998330;28;20232;-62
2023/01/03 11:47:24;;;;;;;15.63;14.03;;;;;;;;;;4998265;28;20732;-62
2023/01/03 11:49:58;;;;;;;15.03;13.50;;;;;;;;;;4998498;28;20221;-63
2023/01/03 11:52:28;;;;;;;13.77;12.37;;;;;;;;;;4998432;28;20198;-62
2023/01/03 11:55:14;;;;;;;15.27;12.70;;;;;;;;;;4998456;28;20198;-62
2023/01/03 11:57:48;;;;;;;13.93;12.53;;;;;;;;;;4998551;28;20200;-62
2023/01/03 12:00:16;;;;;;;15.47;13.93;;;;;;;;;;4998511;28;20823;-62
2023/01/03 12:02:57;;;;;;;14.90;12.83;;;;;;;;;;4998398;28;20302;-61
2023/01/03 12:05:35;;;;;;;15.60;14.00;;;;;;;;;;4998147;28;20324;-60
2023/01/03 12:08:08;;;;;;;15.77;14.07;;;;;;;;;;4998285;28;20276;-60
2023/01/03 12:10:39;;;;;;;18.53;14.67;;;;;;;;;;4998420;28;20220;-61
2023/01/03 12:13:09;;;;;;;15.83;14.23;;;;;;;;;;4998337;28;20202;-59
2023/01/03 12:15:41;;;;;;;17.73;14.60;;;;;;;;;;4998094;28;20225;-61
2023/01/03 12:18:11;;;;;;;19.33;15.53;;;;;;;;;;4998092;28;20194;-61
2023/01/03 12:20:43;;;;;;;16.87;14.43;;;;;;;;;;4998337;28;20198;-59
2023/01/03 12:23:14;;;;;;;18.13;15.03;;;;;;;;;;4998323;28;20213;-59
2023/01/03 12:25:42;;;;;;;18.63;16.43;;;;;;;;;;4998348;28;20233;-61
2023/01/03 12:28:12;;;;;;;18.17;16.20;;;;;;;;;;4998098;28;20550;-61
2023/01/03 12:30:40;;;;;;;20.50;16.17;;;;;;;;;;5006040;28;20205;-60
2023/01/03 12:33:13;;;;;;;18.87;16.00;;;;;;;;;;5017388;28;20296;-61
2023/01/03 12:35:43;;;;;;;19.47;16.70;;;;;;;;;;5014644;28;20293;-61
2023/01/03 12:38:10;;;;;;;20.67;16.90;;;;;;;;;;5014760;28;20197;-61
2023/01/03 12:40:38;;;;;;;18.33;16.27;;;;;;;;;;5014269;28;20241;-61
2023/01/03 12:43:10;;;;;;;20.73;17.63;;;;;;;;;;5014708;28;20308;-61
2023/01/03 12:45:40;;;;;;;19.57;17.57;;;;;;;;;;5014323;28;20264;-60
2023/01/03 12:48:12;;;;;;;19.23;15.77;;;;;;;;;;5014542;28;20225;-61
2023/01/03 12:50:42;;;;;;;19.83;15.50;;;;;;;;;;5014418;28;20205;-62
2023/01/03 12:53:13;;;;;;;17.67;15.80;;;;;;;;;;5014259;28;20198;-61
2023/01/03 12:55:45;;;;;;;18.87;14.90;;;;;;;;;;5014338;28;20204;-61
2023/01/03 12:58:20;;;;;;;16.70;14.90;;;;;;;;;;5014281;28;20209;-61
2023/01/03 13:00:55;;;;;;;18.23;15.07;;;;;;;;;;5014438;28;20259;-61
2023/01/03 13:03:23;;;;;;;16.47;13.47;;;;;;;;;;5014046;28;20212;-61
2023/01/03 13:05:51;;;;;;;18.10;12.73;;;;;;;;;;5014207;28;20207;-61
2023/01/03 13:08:25;;;;;;;14.70;12.07;;;;;;;;;;5007057;28;20198;-62
2023/01/03 13:10:53;;;;;;;13.33;10.77;;;;;;;;;;4994491;28;20208;-61
2023/01/03 13:13:20;;;;;;;18.30;11.27;;;;;;;;;;4994339;28;20245;-61
2023/01/03 13:15:47;;;;;;;12.57;9.83;;;;;;;;;;4994362;28;20198;-61
2023/01/03 13:18:17;;;;;;;13.20;10.53;;;;;;;;;;4994062;28;20203;-64
2023/01/03 13:20:46;;;;;;;14.13;9.93;;;;;;;;;;4994061;28;20691;-66
2023/01/03 13:23:32;;;;;;;12.87;9.97;;;;;;;;;;5001536;28;20259;-66
2023/01/03 13:26:20;;;;;;;10.43;9.13;;;;;;;;;;5007248;28;20672;-65
2023/01/03 13:28:46;;;;;;;11.73;8.87;;;;;;;;;;5013608;28;20209;-68
2023/01/03 13:31:35;;;;;;;9.37;8.07;;;;;;;;;;5011441;28;20207;-68
2023/01/03 13:34:10;;;;;;;14.13;8.03;;;;;;;;;;5011570;28;20333;-68
2023/01/03 13:36:51;;;;;;;12.70;8.30;;;;;;;;;;5011423;28;20196;-68
2023/01/03 13:39:30;;;;;;;9.00;7.43;;;;;;;;;;5012799;28;20248;-68
2023/01/03 13:41:57;;;;;;;13.07;8.37;;;;;;;;;;5012872;28;20257;-68
2023/01/03 13:44:24;;;;;;;13.17;7.67;;;;;;;;;;5012746;28;20217;-68
2023/01/03 13:46:50;;;;;;;14.20;8.30;;;;;;;;;;5012099;28;20220;-68
2023/01/03 13:49:18;;;;;;;15.00;8.77;;;;;;;;;;5012781;28;20237;-68
2023/01/03 13:51:46;;;;;;;7.70;6.90;;;;;;;;;;5012840;28;20285;-68
2023/01/03 13:54:26;;;;;;;9.50;7.33;;;;;;;;;;5012448;28;20659;-68
2023/01/03 13:56:58;;;;;;;9.40;7.13;;;;;;;;;;5012871;28;20232;-68
2023/01/03 13:59:28;;;;;;;10.50;7.37;;;;;;;;;;5012611;28;20206;-68
2023/01/03 14:02:00;;;;;;;11.40;6.80;;;;;;;;;;5012458;28;20683;-69
2023/01/03 14:04:50;;;;;;;9.30;5.87;;;;;;;;;;5012408;28;20253;-69
2023/01/03 14:07:32;;;;;;;6.03;5.40;;;;;;;;;;5012175;28;20198;-68
2023/01/03 14:10:05;;;;;;;7.13;5.37;;;;;;;;;;5012713;28;20210;-69
2023/01/03 14:12:51;;;;;;;9.00;5.30;;;;;;;;;;5009449;28;20308;-68
2023/01/03 14:15:19;;;;;;;7.97;4.77;;;;;;;;;;5012472;28;20296;-64
2023/01/03 14:17:47;;;;;;;7.33;4.97;;;;;;;;;;5012451;28;20201;-65
2023/01/03 14:20:14;;;;;;;6.73;4.30;;;;;;;;;;5009356;28;20560;-64
2023/01/03 14:22:43;;;;;;;7.10;4.67;;;;;;;;;;5012270;28;20202;-64
2023/01/03 14:25:29;;;;;;;7.00;4.10;;;;;;;;;;5010127;28;20260;-64
2023/01/03 14:27:57;;;;;;;6.17;4.30;;;;;;;;;;5011964;28;20201;-65
2023/01/03 14:30:24;;;;;;;6.03;4.17;;;;;;;;;;5011847;28;20206;-65
2023/01/03 14:32:50;;;;;;;7.93;3.80;;;;;;;;;;5011988;28;20229;-65
2023/01/03 14:35:32;;;;;;;5.97;4.43;;;;;;;;;;5011694;28;20214;-64
2023/01/03 14:37:58;;;;;;;8.10;4.10;;;;;;;;;;5012466;28;20276;-64
2023/01/03 14:40:24;;;;;;;6.10;4.23;;;;;;;;;;5010231;28;20269;-64
2023/01/03 14:42:50;;;;;;;6.03;3.70;;;;;;;;;;5012178;28;20208;-65
2023/01/03 14:45:19;;;;;;;8.60;4.00;;;;;;;;;;5012004;28;20704;-65
2023/01/03 14:47:45;;;;;;;4.40;4.00;;;;;;;;;;5011940;28;20248;-65
2023/01/03 14:50:13;;;;;;;4.57;3.70;;;;;;;;;;5011900;28;20575;-64
2023/01/03 14:52:40;;;;;;;6.70;4.10;;;;;;;;;;5012166;28;20208;-64
2023/01/03 14:55:08;;;;;;;6.17;4.07;;;;;;;;;;5012160;28;20611;-65
2023/01/03 14:57:37;;;;;;;5.77;3.97;;;;;;;;;;5011008;28;20225;-65
2023/01/03 15:00:05;;;;;;;6.40;4.40;;;;;;;;;;5011946;28;20202;-65
2023/01/03 15:02:35;;;;;;;9.23;4.33;;;;;;;;;;5011649;28;20297;-64
2023/01/03 15:05:01;;;;;;;6.70;4.37;;;;;;;;;;5011644;28;20657;-64
2023/01/03 15:07:30;;;;;;;4.40;4.00;;;;;;;;;;5011803;28;20194;-63
2023/01/03 15:10:06;;;;;;;7.87;4.50;;;;;;;;;;5011713;28;20622;-64
2023/01/03 15:12:34;;;;;;;6.97;5.00;;;;;;;;;;5011857;28;20200;-64
2023/01/03 15:15:06;;;;;;;5.43;4.40;;;;;;;;;;5011672;28;20593;-64
2023/01/03 15:17:33;;;;;;;7.27;5.07;;;;;;;;;;5011686;28;20214;-64
2023/01/03 15:19:59;;;;;;;6.53;4.63;;;;;;;;;;5011783;28;20212;-64
2023/01/03 15:22:30;;;;;;;8.33;5.13;;;;;;;;;;5011756;28;20189;-64
2023/01/03 15:25:01;;;;;;;5.73;5.07;;;;;;;;;;5011748;28;20263;-64
2023/01/03 15:27:41;;;;;;;15.90;4.73;;;;;;;;;;5011579;28;20244;-64